createdAt,value
2017-06-20T00:01:41.008Z,17.80
2017-06-20T00:04:07.323Z,17.70
2017-06-20T00:06:33.653Z,17.70
2017-06-20T00:08:59.968Z,17.70
2017-06-20T00:11:26.258Z,17.70
2017-06-20T00:13:52.820Z,17.70
2017-06-20T00:16:19.866Z,17.60
2017-06-20T00:18:46.913Z,17.60
2017-06-20T00:21:13.217Z,17.60
2017-06-20T00:23:39.506Z,17.50
2017-06-20T00:26:06.092Z,17.50
2017-06-20T00:28:32.410Z,17.50
2017-06-20T00:30:58.730Z,17.50
2017-06-20T00:33:25.053Z,17.50
2017-06-20T00:35:51.333Z,17.50
2017-06-20T00:38:18.611Z,17.40
2017-06-20T00:40:44.910Z,17.40
2017-06-20T00:43:12.114Z,17.40
2017-06-20T00:45:39.395Z,17.40
2017-06-20T00:48:05.715Z,17.50
2017-06-20T00:50:32.262Z,17.50
2017-06-20T00:52:58.553Z,17.50
2017-06-20T00:55:24.866Z,17.50
2017-06-20T00:57:51.181Z,17.50
2017-06-20T01:00:17.473Z,17.50
2017-06-20T01:02:44.041Z,17.50
2017-06-20T01:05:10.373Z,17.50
2017-06-20T01:07:36.681Z,17.50
2017-06-20T01:10:03.001Z,17.50
2017-06-20T01:12:29.280Z,17.50
2017-06-20T01:14:55.803Z,17.40
2017-06-20T01:17:22.100Z,17.40
2017-06-20T01:19:48.449Z,17.30
2017-06-20T01:22:15.504Z,17.30
2017-06-20T01:24:41.810Z,17.30
2017-06-20T01:27:08.346Z,17.30
2017-06-20T01:29:34.649Z,17.30
2017-06-20T01:32:00.995Z,17.20
2017-06-20T01:34:27.343Z,17.20
2017-06-20T01:36:54.426Z,17.10
2017-06-20T01:39:21.116Z,17.10
2017-06-20T01:41:47.466Z,17.10
2017-06-20T01:44:13.802Z,17.10
2017-06-20T01:46:40.158Z,17.10
2017-06-20T01:49:06.489Z,17.00
2017-06-20T01:51:33.167Z,17.10
2017-06-20T01:53:59.485Z,17.00
2017-06-20T01:56:25.818Z,17.00
2017-06-20T01:58:52.160Z,17.00
2017-06-20T02:01:18.544Z,17.00
2017-06-20T02:03:45.102Z,17.00
2017-06-20T02:06:11.467Z,17.00
2017-06-20T02:08:37.797Z,17.00
2017-06-20T02:11:04.166Z,17.00
2017-06-20T02:13:30.496Z,17.00
2017-06-20T02:15:57.113Z,17.00
2017-06-20T02:18:24.172Z,17.00
2017-06-20T02:20:51.249Z,17.00
2017-06-20T02:23:18.354Z,17.00
2017-06-20T02:25:44.774Z,17.00
2017-06-20T02:28:11.335Z,17.00
2017-06-20T02:30:37.711Z,17.00
2017-06-20T02:33:04.021Z,17.00
2017-06-20T02:35:30.332Z,17.00
2017-06-20T02:37:57.404Z,17.00
2017-06-20T02:40:23.941Z,17.00
2017-06-20T02:42:50.259Z,17.00
2017-06-20T02:45:16.567Z,17.00
2017-06-20T02:47:43.637Z,16.90
2017-06-20T02:50:10.377Z,16.90
2017-06-20T02:52:36.669Z,16.90
2017-06-20T02:55:02.997Z,16.90
2017-06-20T02:57:29.293Z,16.80
2017-06-20T02:59:55.638Z,16.80
2017-06-20T03:02:22.164Z,16.80
2017-06-20T03:04:48.505Z,16.70
2017-06-20T03:07:14.807Z,16.70
2017-06-20T03:09:41.433Z,16.70
2017-06-20T03:12:07.754Z,16.70
2017-06-20T03:14:34.046Z,16.60
2017-06-20T03:17:00.377Z,16.60
2017-06-20T03:19:26.687Z,16.60
2017-06-20T03:21:53.330Z,16.60
2017-06-20T03:24:19.617Z,16.50
2017-06-20T03:26:45.921Z,16.50
2017-06-20T03:29:12.985Z,16.50
2017-06-20T03:31:39.345Z,16.50
2017-06-20T03:34:05.895Z,16.60
2017-06-20T03:36:32.251Z,16.60
2017-06-20T03:38:58.547Z,16.70
2017-06-20T03:41:24.879Z,16.70
2017-06-20T03:43:51.213Z,16.80
2017-06-20T03:46:17.861Z,16.80
2017-06-20T03:48:44.176Z,16.80
2017-06-20T03:51:10.470Z,16.80
2017-06-20T03:53:36.775Z,16.90
2017-06-20T03:56:03.082Z,16.90
2017-06-20T03:58:29.674Z,17.00
2017-06-20T04:00:55.968Z,17.00
2017-06-20T04:03:22.252Z,17.00
2017-06-20T04:05:48.572Z,17.10
2017-06-20T04:08:14.894Z,17.20
2017-06-20T04:10:41.581Z,17.20
2017-06-20T04:13:07.900Z,17.30
2017-06-20T04:15:34.214Z,17.30
2017-06-20T04:18:00.533Z,17.30
2017-06-20T04:20:26.867Z,17.40
2017-06-20T04:22:53.184Z,17.50
2017-06-20T04:25:19.493Z,17.50
2017-06-20T04:27:46.191Z,17.60
2017-06-20T04:30:12.488Z,17.70
2017-06-20T04:32:38.807Z,17.80
2017-06-20T04:35:05.171Z,17.80
2017-06-20T04:37:31.462Z,17.90
2017-06-20T04:39:58.799Z,18.00
2017-06-20T04:42:25.107Z,18.00
2017-06-20T04:44:51.402Z,18.00
2017-06-20T04:47:17.707Z,18.00
2017-06-20T04:49:44.029Z,18.10
2017-06-20T04:52:10.844Z,18.10
2017-06-20T04:54:37.124Z,18.20
2017-06-20T04:57:03.405Z,18.30
2017-06-20T04:59:29.733Z,18.30
2017-06-20T05:01:56.029Z,18.40
2017-06-20T05:04:22.584Z,18.50
2017-06-20T05:06:48.913Z,18.60
2017-06-20T05:09:15.233Z,18.70
2017-06-20T05:11:41.574Z,18.90
2017-06-20T05:14:07.883Z,18.90
2017-06-20T05:16:34.491Z,19.10
2017-06-20T05:19:00.772Z,19.20
2017-06-20T05:21:27.092Z,19.30
2017-06-20T05:23:53.442Z,19.40
2017-06-20T05:26:19.757Z,19.50
2017-06-20T05:28:46.343Z,19.60
2017-06-20T05:31:13.443Z,19.80
2017-06-20T05:33:39.781Z,19.80
2017-06-20T05:36:06.098Z,19.90
2017-06-20T05:38:32.396Z,20.00
2017-06-20T05:40:59.086Z,20.10
2017-06-20T05:43:25.383Z,20.20
2017-06-20T05:45:51.691Z,20.20
2017-06-20T05:48:18.020Z,20.40
2017-06-20T05:50:44.335Z,20.40
2017-06-20T05:53:10.988Z,20.50
2017-06-20T05:55:37.301Z,20.60
2017-06-20T05:58:03.628Z,20.70
2017-06-20T06:00:29.970Z,20.90
2017-06-20T06:02:56.296Z,21.00
2017-06-20T06:05:23.719Z,21.20
2017-06-20T06:07:50.032Z,21.20
2017-06-20T06:10:16.353Z,21.30
2017-06-20T06:12:42.680Z,21.40
2017-06-20T06:15:08.978Z,21.60
2017-06-20T06:17:36.326Z,21.80
2017-06-20T06:20:03.369Z,21.90
2017-06-20T06:22:29.722Z,21.90
2017-06-20T06:24:56.480Z,22.00
2017-06-20T06:27:22.900Z,22.10
2017-06-20T06:29:49.520Z,22.20
2017-06-20T06:32:15.861Z,22.40
2017-06-20T06:34:42.954Z,22.70
2017-06-20T06:37:09.329Z,22.70
2017-06-20T06:39:35.701Z,22.90
2017-06-20T06:42:02.331Z,23.10
2017-06-20T06:44:28.666Z,23.20
2017-06-20T06:46:55.013Z,23.30
2017-06-20T06:49:21.361Z,23.50
2017-06-20T06:51:47.805Z,23.60
2017-06-20T06:54:14.551Z,23.70
2017-06-20T06:56:40.857Z,23.90
2017-06-20T06:59:07.216Z,24.00
2017-06-20T07:01:33.559Z,24.10
2017-06-20T07:03:59.921Z,24.30
2017-06-20T07:06:26.619Z,24.40
2017-06-20T07:08:53.773Z,24.50
2017-06-20T07:11:20.171Z,24.50
2017-06-20T07:13:46.544Z,24.60
2017-06-20T07:16:12.903Z,24.80
2017-06-20T07:18:39.223Z,24.80
2017-06-20T07:21:05.814Z,24.90
2017-06-20T07:23:32.142Z,25.00
2017-06-20T07:25:59.253Z,25.20
2017-06-20T07:28:25.907Z,25.20
2017-06-20T07:30:52.248Z,25.30
2017-06-20T07:33:18.643Z,25.40
2017-06-20T07:35:45.318Z,25.50
2017-06-20T07:38:11.627Z,25.60
2017-06-20T07:40:38.072Z,25.60
2017-06-20T07:43:04.454Z,25.70
2017-06-20T07:45:30.778Z,25.70
2017-06-20T07:47:57.496Z,25.80
2017-06-20T07:50:24.622Z,25.80
2017-06-20T07:52:50.969Z,25.80
2017-06-20T07:55:18.082Z,25.90
2017-06-20T07:57:44.465Z,25.90
2017-06-20T08:00:11.280Z,26.00
2017-06-20T08:02:37.646Z,26.00
2017-06-20T08:05:04.043Z,26.10
2017-06-20T08:07:31.124Z,26.20
2017-06-20T08:09:57.469Z,26.20
2017-06-20T08:12:24.129Z,26.40
2017-06-20T08:14:50.489Z,26.40
2017-06-20T08:17:16.876Z,26.40
2017-06-20T08:19:43.377Z,26.50
2017-06-20T08:22:10.733Z,26.60
2017-06-20T08:24:37.451Z,26.70
2017-06-20T08:27:03.788Z,26.80
2017-06-20T08:29:30.178Z,26.90
2017-06-20T08:31:56.545Z,27.00
2017-06-20T08:34:22.888Z,27.10
2017-06-20T08:36:49.503Z,27.20
2017-06-20T08:39:18.792Z,27.30
2017-06-20T08:41:45.872Z,27.40
2017-06-20T08:44:12.310Z,27.30
2017-06-20T08:46:38.677Z,27.40
2017-06-20T08:49:05.327Z,27.50
2017-06-20T08:51:32.428Z,27.70
2017-06-20T08:53:58.797Z,27.70
2017-06-20T08:56:25.933Z,27.80
2017-06-20T08:58:52.270Z,27.80
2017-06-20T09:01:18.919Z,27.90
2017-06-20T09:03:46.033Z,28.10
2017-06-20T09:06:12.364Z,28.00
2017-06-20T09:08:38.717Z,28.10
2017-06-20T09:11:05.074Z,28.20
2017-06-20T09:13:31.787Z,28.30
2017-06-20T09:15:58.200Z,28.40
2017-06-20T09:18:24.542Z,28.40
2017-06-20T09:20:51.009Z,28.50
2017-06-20T09:23:17.417Z,28.50
2017-06-20T09:25:45.009Z,28.80
2017-06-20T09:28:11.351Z,28.80
2017-06-20T09:30:37.693Z,28.90
2017-06-20T09:33:04.070Z,29.00
2017-06-20T09:35:31.164Z,29.10
2017-06-20T09:37:59.344Z,29.10
2017-06-20T09:40:29.480Z,29.10
2017-06-20T09:42:56.038Z,29.20
2017-06-20T09:45:27.377Z,29.30
2017-06-20T09:47:54.469Z,29.50
2017-06-20T09:50:21.137Z,29.50
2017-06-20T09:52:47.497Z,29.60
2017-06-20T09:55:25.372Z,29.90
2017-06-20T09:57:51.792Z,30.00
2017-06-20T10:00:18.188Z,30.20
2017-06-20T10:02:44.550Z,30.40
2017-06-20T10:05:10.908Z,30.70
2017-06-20T10:07:37.583Z,31.00
2017-06-20T10:10:03.917Z,31.20
2017-06-20T10:12:30.303Z,31.30
2017-06-20T10:14:57.429Z,31.30
2017-06-20T10:17:23.775Z,31.20
2017-06-20T10:19:50.777Z,31.50
2017-06-20T10:22:17.141Z,31.80
2017-06-20T10:24:43.474Z,32.10
2017-06-20T10:27:09.822Z,32.30
2017-06-20T10:29:36.933Z,32.90
2017-06-20T10:32:03.599Z,32.90
2017-06-20T10:34:29.991Z,33.20
2017-06-20T10:36:56.388Z,33.50
2017-06-20T10:39:22.754Z,33.50
2017-06-20T10:41:49.101Z,33.20
2017-06-20T10:44:15.753Z,33.10
2017-06-20T10:46:42.092Z,33.20
2017-06-20T10:49:08.453Z,33.40
2017-06-20T10:51:34.799Z,33.50
2017-06-20T10:54:01.199Z,33.70
2017-06-20T10:56:27.785Z,34.00
2017-06-20T10:58:54.133Z,34.30
2017-06-20T11:01:20.468Z,34.50
2017-06-20T11:03:46.844Z,34.70
2017-06-20T11:06:13.207Z,34.80
2017-06-20T11:08:39.809Z,34.90
2017-06-20T11:11:06.220Z,34.90
2017-06-20T11:13:32.562Z,34.90
2017-06-20T11:15:58.931Z,34.80
2017-06-20T11:18:25.348Z,34.40
2017-06-20T11:20:51.985Z,33.90
2017-06-20T11:23:18.323Z,33.30
2017-06-20T11:25:44.668Z,32.80
2017-06-20T11:28:11.048Z,32.40
2017-06-20T11:30:37.398Z,31.90
2017-06-20T11:33:04.059Z,31.60
2017-06-20T11:35:30.427Z,31.30
2017-06-20T11:37:56.798Z,31.10
2017-06-20T11:40:23.371Z,30.90
2017-06-20T11:42:49.853Z,30.70
2017-06-20T11:45:16.522Z,30.90
2017-06-20T11:47:42.978Z,31.50
2017-06-20T11:50:09.364Z,31.80
2017-06-20T11:52:35.755Z,31.90
2017-06-20T11:55:02.070Z,32.40
2017-06-20T11:57:29.657Z,33.10
2017-06-20T11:59:56.130Z,33.40
2017-06-20T12:02:22.535Z,34.00
2017-06-20T12:04:48.914Z,34.70
2017-06-20T12:07:16.008Z,35.00
2017-06-20T12:09:42.669Z,35.00
2017-06-20T12:12:09.050Z,34.40
2017-06-20T12:14:35.392Z,33.80
2017-06-20T12:17:01.767Z,33.30
2017-06-20T12:19:28.191Z,33.10
2017-06-20T12:21:54.579Z,33.20
2017-06-20T12:24:20.929Z,33.70
2017-06-20T12:26:47.533Z,34.30
2017-06-20T12:29:13.913Z,34.70
2017-06-20T12:31:40.276Z,35.20
2017-06-20T12:34:07.443Z,35.90
2017-06-20T12:36:33.869Z,35.80
2017-06-20T12:39:00.599Z,35.60
2017-06-20T12:41:26.976Z,35.10
2017-06-20T12:43:53.343Z,34.50
2017-06-20T12:46:20.431Z,33.50
2017-06-20T12:48:46.773Z,33.40
2017-06-20T12:51:13.144Z,32.90
2017-06-20T12:53:40.247Z,32.40
2017-06-20T12:56:06.578Z,32.30
2017-06-20T12:58:32.959Z,32.30
2017-06-20T13:00:59.295Z,32.50
2017-06-20T13:03:26.006Z,33.10
2017-06-20T13:05:52.349Z,33.80
2017-06-20T13:08:18.698Z,34.70
2017-06-20T13:10:45.051Z,35.50
2017-06-20T13:13:11.406Z,36.20
2017-06-20T13:15:38.055Z,36.30
2017-06-20T13:18:04.444Z,36.40
2017-06-20T13:20:30.880Z,36.70
2017-06-20T13:22:57.241Z,36.80
2017-06-20T13:25:23.659Z,36.80
2017-06-20T13:27:50.294Z,36.80
2017-06-20T13:30:16.648Z,36.90
2017-06-20T13:32:42.990Z,37.10
2017-06-20T13:35:09.401Z,37.50
2017-06-20T13:37:35.778Z,38.00
2017-06-20T13:40:02.172Z,38.40
2017-06-20T13:42:28.517Z,38.80
2017-06-20T13:44:55.213Z,39.30
2017-06-20T13:47:21.569Z,39.50
2017-06-20T13:49:47.951Z,38.80
2017-06-20T13:52:14.311Z,38.60
2017-06-20T13:54:40.700Z,38.70
2017-06-20T13:57:07.141Z,39.00
2017-06-20T13:59:33.506Z,38.80
2017-06-20T14:02:00.159Z,38.10
2017-06-20T14:04:26.544Z,37.00
2017-06-20T14:06:52.895Z,36.00
2017-06-20T14:09:19.320Z,34.90
2017-06-20T14:11:45.641Z,34.00
2017-06-20T14:14:12.087Z,33.30
2017-06-20T14:16:38.439Z,32.70
2017-06-20T14:19:05.288Z,32.20
2017-06-20T14:21:32.445Z,31.40
2017-06-20T14:23:59.524Z,31.10
2017-06-20T14:26:25.900Z,31.10
2017-06-20T14:28:53.007Z,30.70
2017-06-20T14:31:19.358Z,30.70
2017-06-20T14:33:45.735Z,30.50
2017-06-20T14:36:12.440Z,30.20
2017-06-20T14:38:38.811Z,29.70
2017-06-20T14:41:05.223Z,29.00
2017-06-20T14:43:32.647Z,27.90
2017-06-20T14:46:00.482Z,27.50
2017-06-20T14:48:27.154Z,27.50
2017-06-20T14:50:53.559Z,27.20
2017-06-20T14:53:19.933Z,26.90
2017-06-20T14:55:46.338Z,26.90
2017-06-20T14:58:12.744Z,27.10
2017-06-20T15:00:39.117Z,27.60
2017-06-20T15:03:05.515Z,28.40
2017-06-20T15:05:32.218Z,29.40
2017-06-20T15:07:58.570Z,30.50
2017-06-20T15:10:24.960Z,31.50
2017-06-20T15:12:52.080Z,33.00
2017-06-20T15:15:18.435Z,32.90
2017-06-20T15:17:45.556Z,33.90
2017-06-20T15:20:12.049Z,33.90
2017-06-20T15:22:38.623Z,34.30
2017-06-20T15:25:04.958Z,34.80
2017-06-20T15:27:31.310Z,35.20
2017-06-20T15:29:57.655Z,35.50
2017-06-20T15:32:24.005Z,35.50
2017-06-20T15:34:50.672Z,35.50
2017-06-20T15:37:16.999Z,35.50
2017-06-20T15:39:43.370Z,35.40
2017-06-20T15:42:09.762Z,35.20
2017-06-20T15:44:36.352Z,34.90
2017-06-20T15:47:02.708Z,34.60
2017-06-20T15:49:29.055Z,34.20
2017-06-20T15:51:55.773Z,33.90
2017-06-20T15:54:22.116Z,33.60
2017-06-20T15:56:48.476Z,33.40
2017-06-20T15:59:15.612Z,33.00
2017-06-20T16:01:41.926Z,32.90
2017-06-20T16:04:08.296Z,32.80
2017-06-20T16:06:34.680Z,32.50
2017-06-20T16:09:01.062Z,32.30
2017-06-20T16:11:27.419Z,32.10
2017-06-20T16:13:53.752Z,31.80
2017-06-20T16:16:20.108Z,31.60
2017-06-20T16:18:46.477Z,31.40
2017-06-20T16:21:13.186Z,31.30
2017-06-20T16:23:40.265Z,31.40
2017-06-20T16:26:06.631Z,31.30
2017-06-20T16:28:32.991Z,31.40
2017-06-20T16:30:59.364Z,31.50
2017-06-20T16:33:25.698Z,31.50
2017-06-20T16:35:52.076Z,31.60
2017-06-20T16:38:18.658Z,31.90
2017-06-20T16:40:45.150Z,32.30
2017-06-20T16:43:11.498Z,32.70
2017-06-20T16:45:38.626Z,33.30
2017-06-20T16:48:05.980Z,33.60
2017-06-20T16:50:32.369Z,33.60
2017-06-20T16:52:58.756Z,33.90
2017-06-20T16:55:25.478Z,33.90
2017-06-20T16:57:51.829Z,33.90
2017-06-20T17:00:18.184Z,33.90
2017-06-20T17:02:52.197Z,33.90
2017-06-20T17:05:18.631Z,33.70
2017-06-20T17:07:44.988Z,33.80
2017-06-20T17:10:11.343Z,33.80
2017-06-20T17:12:38.670Z,33.80
2017-06-20T17:15:05.034Z,33.80
2017-06-20T17:17:31.403Z,33.80
2017-06-20T17:19:57.869Z,33.70
2017-06-20T17:22:24.226Z,33.70
2017-06-20T17:24:51.325Z,33.40
2017-06-20T17:27:17.743Z,33.40
2017-06-20T17:29:44.312Z,33.10
2017-06-20T17:32:10.702Z,32.90
2017-06-20T17:34:37.104Z,32.40
2017-06-20T17:37:03.497Z,32.00
2017-06-20T17:39:29.913Z,31.60
2017-06-20T17:41:56.316Z,31.20
2017-06-20T17:44:23.474Z,30.80
2017-06-20T17:46:50.133Z,30.50
2017-06-20T17:49:16.460Z,30.30
2017-06-20T17:51:42.782Z,30.20
2017-06-20T17:54:09.197Z,30.20
2017-06-20T17:56:35.580Z,30.20
2017-06-20T17:59:01.954Z,30.10
2017-06-20T18:01:28.326Z,29.80
2017-06-20T18:03:54.924Z,29.50
2017-06-20T18:06:21.322Z,29.20
2017-06-20T18:08:47.707Z,28.80
2017-06-20T18:11:14.066Z,28.50
2017-06-20T18:13:40.439Z,28.20
2017-06-20T18:16:06.780Z,27.90
2017-06-20T18:18:33.163Z,27.60
2017-06-20T18:20:59.578Z,27.40
2017-06-20T18:23:25.984Z,27.20
2017-06-20T18:25:52.321Z,27.00
2017-06-20T18:28:19.000Z,26.90
2017-06-20T18:30:46.082Z,26.70
2017-06-20T18:33:12.420Z,26.60
2017-06-20T18:35:38.790Z,26.60
2017-06-20T18:38:05.166Z,26.40
2017-06-20T18:40:31.539Z,26.30
2017-06-20T18:43:04.806Z,26.10
2017-06-20T18:45:31.456Z,26.00
2017-06-20T18:47:57.819Z,25.80
2017-06-20T18:50:24.935Z,25.70
2017-06-20T18:52:51.340Z,25.60
2017-06-20T18:55:17.708Z,25.50
2017-06-20T18:57:44.837Z,25.40
2017-06-20T19:00:11.234Z,25.30
2017-06-20T19:02:37.841Z,25.30
2017-06-20T19:05:04.920Z,25.10
2017-06-20T19:07:31.296Z,25.10
2017-06-20T19:09:57.661Z,25.10
2017-06-20T19:12:24.022Z,25.00
2017-06-20T19:14:50.458Z,24.80
2017-06-20T19:17:16.833Z,24.70
2017-06-20T19:19:44.299Z,24.50
2017-06-20T19:22:10.656Z,24.50
2017-06-20T19:24:37.057Z,24.50
2017-06-20T19:27:04.203Z,24.40
2017-06-20T19:29:31.311Z,24.40
2017-06-20T19:31:57.715Z,24.30
2017-06-20T19:34:24.106Z,24.30
2017-06-20T19:36:50.824Z,24.30
2017-06-20T19:39:17.182Z,24.30
2017-06-20T19:41:43.545Z,24.30
2017-06-20T19:44:09.992Z,24.30
2017-06-20T19:46:36.339Z,24.30
2017-06-20T19:49:03.002Z,24.30
2017-06-20T19:51:29.371Z,24.30
2017-06-20T19:53:55.765Z,24.30
2017-06-20T19:56:22.176Z,24.30
2017-06-20T19:58:48.610Z,24.20
2017-06-20T20:01:15.968Z,24.30
2017-06-20T20:03:42.369Z,24.20
2017-06-20T20:06:08.717Z,24.20
2017-06-20T20:08:35.144Z,24.10
2017-06-20T20:11:01.529Z,24.10
2017-06-20T20:13:27.889Z,24.10
2017-06-20T20:15:54.271Z,24.00
2017-06-20T20:18:20.972Z,24.00
2017-06-20T20:20:47.481Z,23.90
2017-06-20T20:23:13.860Z,23.90
2017-06-20T20:25:40.263Z,23.80
2017-06-20T20:28:06.627Z,23.70
2017-06-20T20:30:32.967Z,23.70
2017-06-20T20:32:59.368Z,23.60
2017-06-20T20:35:26.110Z,23.50
2017-06-20T20:37:53.227Z,23.50
2017-06-20T20:40:19.615Z,23.40
2017-06-20T20:42:45.978Z,23.40
2017-06-20T20:45:12.327Z,23.40
2017-06-20T20:47:38.716Z,23.40
2017-06-20T20:50:05.091Z,23.40
2017-06-20T20:52:31.811Z,23.40
2017-06-20T20:54:58.160Z,23.40
2017-06-20T20:57:24.495Z,23.30
2017-06-20T20:59:50.862Z,23.30
2017-06-20T21:02:17.219Z,23.20
2017-06-20T21:04:43.576Z,23.20
2017-06-20T21:07:09.986Z,23.10
2017-06-20T21:09:36.639Z,23.10
2017-06-20T21:12:03.018Z,23.00
2017-06-20T21:14:29.396Z,23.00
2017-06-20T21:16:55.744Z,23.00
2017-06-20T21:19:22.924Z,22.90
2017-06-20T21:21:49.215Z,22.80
2017-06-20T21:24:15.523Z,22.80
2017-06-20T21:26:42.175Z,22.80
2017-06-20T21:29:08.515Z,22.70
2017-06-20T21:31:34.950Z,22.60
2017-06-20T21:34:02.124Z,22.50
2017-06-20T21:36:28.531Z,22.50
2017-06-20T21:38:55.616Z,22.40
2017-06-20T21:41:21.995Z,22.40
2017-06-20T21:43:48.598Z,22.40
2017-06-20T21:46:14.930Z,22.40
2017-06-20T21:48:41.267Z,22.40
2017-06-20T21:51:07.630Z,22.30
2017-06-20T21:53:34.724Z,22.30
2017-06-20T21:56:01.110Z,22.30
2017-06-20T21:58:28.331Z,22.20
2017-06-20T22:00:54.973Z,22.20
2017-06-20T22:03:21.339Z,22.20
2017-06-20T22:05:47.668Z,22.10
2017-06-20T22:08:14.061Z,22.10
2017-06-20T22:10:40.653Z,22.10
2017-06-20T22:13:07.059Z,22.10
2017-06-20T22:15:35.935Z,22.00
2017-06-20T22:18:02.768Z,21.90
2017-06-20T22:20:29.218Z,21.90
2017-06-20T22:22:55.981Z,21.90
2017-06-20T22:25:22.378Z,21.90
2017-06-20T22:27:49.477Z,21.80
2017-06-20T22:30:15.854Z,21.80
2017-06-20T22:32:42.230Z,21.70
2017-06-20T22:35:08.827Z,21.70
2017-06-20T22:37:35.922Z,21.60
2017-06-20T22:40:03.648Z,21.60
2017-06-20T22:42:30.905Z,21.60
2017-06-20T22:44:57.318Z,21.70
2017-06-20T22:47:24.242Z,21.70
2017-06-20T22:49:50.628Z,21.70
2017-06-20T22:52:17.306Z,21.80
2017-06-20T22:54:44.431Z,21.80
2017-06-20T22:57:10.764Z,21.80
2017-06-20T22:59:37.097Z,21.80
2017-06-20T23:02:03.440Z,21.80
2017-06-20T23:04:30.840Z,21.80
2017-06-20T23:06:57.168Z,21.80
2017-06-20T23:09:23.528Z,21.80
2017-06-20T23:11:49.889Z,21.80
2017-06-20T23:14:16.273Z,21.90
2017-06-20T23:16:42.630Z,21.90
2017-06-20T23:19:10.738Z,21.90
2017-06-20T23:21:37.113Z,21.90
2017-06-20T23:24:03.521Z,21.90
2017-06-20T23:26:29.855Z,21.90
2017-06-20T23:28:56.201Z,22.00
2017-06-20T23:31:22.587Z,22.00
2017-06-20T23:33:48.947Z,22.00
2017-06-20T23:36:15.668Z,22.00
2017-06-20T23:38:42.013Z,22.00
2017-06-20T23:41:08.342Z,21.90
2017-06-20T23:43:34.739Z,21.90
2017-06-20T23:46:01.087Z,21.90
2017-06-20T23:48:27.775Z,21.80
2017-06-20T23:50:54.131Z,21.00
2017-06-20T23:53:21.205Z,20.30
2017-06-20T23:55:47.632Z,20.20
2017-06-20T23:58:14.030Z,20.10
